Time;durP1;ratioP1;P1;durP2;ratioP2;P2;SDS_P1;SDS_P2;PMS_P1;PMS_P2;Temp;Humidity;BMP_temperature;BMP_pressure;BME280_temperature;BME280_humidity;BME280_pressure;Samples;Min_cycle;Max_cycle;Signal;HPM_P1;HPM_P2
2022/06/19 00:01:45;;;;;;;14.73;4.97;;;22.00;94.50;;;;;;5001389;28;20440;-86
2022/06/19 00:04:12;;;;;;;12.87;4.53;;;22.10;93.90;;;;;;4997395;28;20451;-86
2022/06/19 00:06:39;;;;;;;9.10;3.50;;;22.20;93.80;;;;;;4977010;28;20265;-86
2022/06/19 00:09:05;;;;;;;8.40;3.90;;;22.10;94.00;;;;;;4995445;28;20534;-86
2022/06/19 00:11:33;;;;;;;7.40;3.83;;;22.10;93.80;;;;;;4972174;28;20479;-86
2022/06/19 00:13:59;;;;;;;12.23;4.47;;;22.10;93.20;;;;;;5005102;28;20505;-87
2022/06/19 00:16:25;;;;;;;7.20;3.93;;;22.10;93.20;;;;;;4989715;28;20956;-86
2022/06/19 00:18:50;;;;;;;8.67;4.43;;;22.20;93.20;;;;;;4979995;28;21069;-86
2022/06/19 00:21:17;;;;;;;7.50;4.20;;;22.10;92.80;;;;;;4994084;28;20254;-86
2022/06/19 00:23:43;;;;;;;7.77;4.00;;;22.20;92.30;;;;;;4989583;28;20276;-86
2022/06/19 00:26:09;;;;;;;5.93;3.97;;;22.10;92.30;;;;;;5016297;28;20453;-86
2022/06/19 00:28:34;;;;;;;7.77;4.00;;;22.10;91.90;;;;;;5002402;28;20953;-85
2022/06/19 00:31:00;;;;;;;10.27;4.13;;;22.40;91.80;;;;;;4997193;28;20245;-87
2022/06/19 00:33:25;;;;;;;10.30;4.30;;;22.30;91.70;;;;;;5007799;28;20551;-86
2022/06/19 00:35:51;;;;;;;10.10;3.67;;;22.40;91.30;;;;;;5021070;28;20204;-86
2022/06/19 00:38:16;;;;;;;4.33;3.30;;;22.40;90.50;;;;;;4988460;28;20720;-87
2022/06/19 00:40:42;;;;;;;7.10;4.00;;;22.50;90.30;;;;;;4987437;28;20650;-87
2022/06/19 00:43:07;;;;;;;6.57;3.63;;;22.60;89.30;;;;;;5006205;28;20185;-87
2022/06/19 00:45:38;;;;;;;8.47;4.40;;;22.60;91.10;;;;;;5015129;28;20300;-87
2022/06/19 00:48:14;;;;;;;7.87;3.77;;;22.60;90.30;;;;;;5003157;28;20177;-87
2022/06/19 00:50:41;;;;;;;4.20;3.53;;;22.60;89.70;;;;;;5010333;28;20459;-86
2022/06/19 00:53:16;;;;;;;7.17;3.63;;;22.50;91.40;;;;;;4993001;28;20436;-86
2022/06/19 00:55:44;;;;;;;9.07;3.93;;;22.50;90.90;;;;;;5006392;28;20447;-86
2022/06/19 00:58:34;;;;;;;4.97;3.80;;;22.40;90.50;;;;;;4986264;28;20438;-87
2022/06/19 01:01:22;;;;;;;8.33;3.80;;;22.30;91.20;;;;;;5002697;28;20527;-87
2022/06/19 01:04:20;;;;;;;10.10;4.10;;;22.20;90.30;;;;;;5008855;28;20497;-87
2022/06/19 01:06:48;;;;;;;8.33;3.60;;;22.20;90.40;;;;;;5002258;28;20439;-87
2022/06/19 01:09:14;;;;;;;9.20;3.20;;;22.20;85.90;;;;;;5010920;28;20836;-87
2022/06/19 01:11:39;;;;;;;6.73;3.30;;;22.40;83.80;;;;;;5015623;28;20488;-87
2022/06/19 01:14:11;;;;;;;8.30;3.77;;;22.60;83.00;;;;;;4986462;28;20230;-87
2022/06/19 01:16:37;;;;;;;8.67;3.67;;;22.70;85.40;;;;;;5000694;28;20185;-86
2022/06/19 01:19:04;;;;;;;13.47;4.40;;;22.60;87.30;;;;;;5008560;28;20608;-87
2022/06/19 01:21:47;;;;;;;10.20;4.50;;;22.60;84.10;;;;;;5003638;28;20450;-87
2022/06/19 01:24:30;;;;;;;10.60;4.70;;;22.60;83.90;;;;;;4980951;28;20829;-87
2022/06/19 01:26:59;;;;;;;7.30;3.93;;;22.60;84.30;;;;;;4991344;28;20571;-87
2022/06/19 01:29:31;;;;;;;8.63;3.90;;;22.70;82.50;;;;;;4998837;28;20956;-86
2022/06/19 01:31:59;;;;;;;7.83;3.60;;;22.90;81.40;;;;;;5000055;28;20479;-87
2022/06/19 01:34:32;;;;;;;9.03;3.97;;;22.90;81.40;;;;;;4986140;28;20455;-87
2022/06/19 01:37:33;;;;;;;8.17;3.63;;;22.90;82.50;;;;;;4995532;28;20464;-87
2022/06/19 01:40:09;;;;;;;10.47;4.10;;;22.70;86.30;;;;;;5048973;28;20437;-87
2022/06/19 01:42:35;;;;;;;9.53;4.00;;;22.50;86.90;;;;;;4990064;28;20487;-87
2022/06/19 01:45:01;;;;;;;7.03;3.50;;;22.30;88.30;;;;;;4997008;28;20807;-87
2022/06/19 01:47:27;;;;;;;9.70;3.63;;;22.20;89.70;;;;;;4998279;28;20673;-87
2022/06/19 01:49:55;;;;;;;6.97;3.40;;;22.00;89.70;;;;;;4999939;28;20262;-86
2022/06/19 01:52:23;;;;;;;10.90;3.60;;;21.90;87.50;;;;;;5009392;28;20507;-86
2022/06/19 01:55:17;;;;;;;6.30;3.53;;;21.90;88.40;;;;;;5004198;28;20438;-87
2022/06/19 01:57:49;;;;;;;8.77;4.17;;;21.90;88.50;;;;;;4996461;28;20444;-86
2022/06/19 02:00:23;;;;;;;7.77;3.70;;;21.90;90.10;;;;;;5002112;28;20458;-86
2022/06/19 02:03:05;;;;;;;6.97;3.40;;;21.80;90.10;;;;;;5004706;28;20482;-86
2022/06/19 02:05:32;;;;;;;10.77;4.30;;;21.80;90.10;;;;;;5014970;27;22726;-86
2022/06/19 02:07:58;;;;;;;4.87;3.67;;;21.80;90.40;;;;;;5002814;28;21072;-86
2022/06/19 02:10:24;;;;;;;9.20;3.67;;;21.70;91.00;;;;;;5001760;28;20535;-87
2022/06/19 02:12:50;;;;;;;9.00;3.60;;;21.70;91.00;;;;;;5002979;28;20210;-87
2022/06/19 02:15:16;;;;;;;11.33;3.63;;;21.50;90.60;;;;;;4995169;28;20292;-87
2022/06/19 02:17:49;;;;;;;7.90;3.80;;;21.50;90.70;;;;;;5001970;28;20575;-88
2022/06/19 02:20:15;;;;;;;8.30;4.13;;;21.60;90.40;;;;;;5000812;28;20212;-85
2022/06/19 02:22:41;;;;;;;5.70;3.10;;;21.60;91.90;;;;;;5012641;28;20435;-84
2022/06/19 02:25:07;;;;;;;11.00;4.20;;;21.70;92.50;;;;;;5001509;28;20443;-87
2022/06/19 02:27:34;;;;;;;9.30;4.27;;;21.60;91.70;;;;;;4993668;28;20189;-86
2022/06/19 02:30:03;;;;;;;6.70;3.97;;;21.70;90.70;;;;;;5002723;28;21309;-86
2022/06/19 02:32:38;;;;;;;9.50;4.43;;;21.70;90.60;;;;;;4999611;28;20490;-86
2022/06/19 02:35:05;;;;;;;6.80;3.73;;;21.70;90.80;;;;;;4994752;28;20436;-86
2022/06/19 02:37:36;;;;;;;7.63;4.10;;;21.70;91.50;;;;;;4992086;28;21118;-86
2022/06/19 02:40:17;;;;;;;9.00;4.37;;;21.60;90.90;;;;;;4987637;28;20486;-86
2022/06/19 02:42:45;;;;;;;10.77;4.67;;;21.60;91.40;;;;;;4998345;28;20440;-85
2022/06/19 02:45:15;;;;;;;9.10;4.60;;;21.40;91.60;;;;;;5003716;28;20451;-86
2022/06/19 02:47:41;;;;;;;14.63;4.40;;;21.30;91.90;;;;;;4989164;28;20450;-86
2022/06/19 02:50:10;;;;;;;8.90;4.00;;;21.30;92.00;;;;;;4995883;28;20447;-86
2022/06/19 02:52:36;;;;;;;10.10;4.80;;;21.30;92.10;;;;;;4979462;28;20547;-86
2022/06/19 02:55:02;;;;;;;10.57;4.30;;;21.30;92.00;;;;;;4999425;28;20448;-86
2022/06/19 02:57:28;;;;;;;8.47;3.97;;;21.30;91.80;;;;;;4994722;28;20193;-86
2022/06/19 02:59:56;;;;;;;8.23;4.70;;;21.30;92.30;;;;;;5012038;27;20750;-85
2022/06/19 03:02:22;;;;;;;9.33;3.97;;;21.30;92.00;;;;;;4999600;28;20199;-86
2022/06/19 03:04:53;;;;;;;9.37;4.40;;;21.30;92.10;;;;;;4999934;28;20956;-86
2022/06/19 03:07:19;;;;;;;6.80;4.27;;;21.30;92.80;;;;;;4993939;28;20236;-86
2022/06/19 03:09:44;;;;;;;9.43;4.80;;;21.30;92.80;;;;;;4987924;28;21037;-85
2022/06/19 03:12:10;;;;;;;7.60;4.50;;;21.20;94.10;;;;;;5001419;28;20307;-86
2022/06/19 03:14:36;;;;;;;6.77;4.00;;;21.00;93.40;;;;;;5010304;28;20222;-86
2022/06/19 03:17:02;;;;;;;10.13;4.70;;;21.00;93.50;;;;;;4973877;28;20448;-85
2022/06/19 03:19:27;;;;;;;9.50;5.13;;;20.90;93.40;;;;;;5002324;28;21461;-86
2022/06/19 03:21:56;;;;;;;11.23;5.90;;;20.90;93.60;;;;;;4992765;28;20191;-86
2022/06/19 03:24:22;;;;;;;8.80;5.13;;;20.90;93.30;;;;;;5000363;28;20207;-86
2022/06/19 03:26:47;;;;;;;11.00;5.33;;;20.90;93.40;;;;;;4999489;28;20451;-86
2022/06/19 03:29:13;;;;;;;11.93;5.07;;;20.90;93.30;;;;;;4991160;28;20185;-87
2022/06/19 03:31:38;;;;;;;8.07;5.30;;;20.90;93.30;;;;;;4996476;28;20225;-86
2022/06/19 03:34:04;;;;;;;8.93;4.60;;;20.90;94.00;;;;;;4993975;28;21112;-87
2022/06/19 03:36:30;;;;;;;7.57;4.57;;;20.80;94.90;;;;;;4980978;28;20189;-87
2022/06/19 03:38:55;;;;;;;9.30;4.37;;;20.70;95.80;;;;;;5002091;28;20485;-86
2022/06/19 03:41:21;;;;;;;7.30;4.20;;;20.70;96.20;;;;;;5004423;28;20234;-86
2022/06/19 03:43:47;;;;;;;10.70;4.17;;;20.60;96.60;;;;;;4998514;28;20277;-86
2022/06/19 03:46:16;;;;;;;13.23;4.30;;;20.60;97.10;;;;;;5003709;28;20538;-87
2022/06/19 03:48:44;;;;;;;9.30;4.80;;;20.50;97.10;;;;;;5000696;28;20197;-87
2022/06/19 03:51:10;;;;;;;8.30;4.80;;;20.50;97.80;;;;;;4998486;28;20480;-87
2022/06/19 03:53:36;;;;;;;7.43;4.33;;;20.50;96.70;;;;;;4998221;28;20428;-87
2022/06/19 03:56:03;;;;;;;13.07;5.23;;;20.60;96.50;;;;;;4985138;28;20458;-87
2022/06/19 03:58:45;;;;;;;8.93;4.97;;;20.70;96.10;;;;;;4995773;28;20447;-86
2022/06/19 04:01:14;;;;;;;8.70;4.70;;;20.70;96.40;;;;;;4993160;28;20876;-87
2022/06/19 04:03:40;;;;;;;8.27;5.53;;;20.80;96.10;;;;;;5002850;28;20447;-86
2022/06/19 04:06:07;;;;;;;9.43;5.07;;;20.80;96.20;;;;;;4988927;28;21355;-86
2022/06/19 04:08:32;;;;;;;8.30;4.83;;;20.90;96.30;;;;;;4999295;28;20451;-87
2022/06/19 04:10:58;;;;;;;12.37;5.50;;;20.90;96.30;;;;;;4992793;28;20459;-88
2022/06/19 04:13:23;;;;;;;7.80;4.80;;;20.90;96.20;;;;;;4998404;28;20192;-87
2022/06/19 04:15:49;;;;;;;13.83;5.30;;;20.80;96.40;;;;;;4989660;28;20200;-87
2022/06/19 04:18:14;;;;;;;7.77;4.93;;;20.80;96.70;;;;;;4984654;28;20192;-88
2022/06/19 04:20:40;;;;;;;12.00;5.77;;;20.80;96.70;;;;;;5009541;28;20193;-88
2022/06/19 04:23:08;;;;;;;16.63;5.83;;;20.80;96.60;;;;;;4992100;28;20205;-87
2022/06/19 04:25:34;;;;;;;10.70;4.87;;;20.80;96.50;;;;;;4998397;28;20672;-87
2022/06/19 04:27:59;;;;;;;10.63;5.70;;;20.90;96.70;;;;;;4979630;28;20547;-87
2022/06/19 04:30:26;;;;;;;11.10;4.93;;;20.80;96.80;;;;;;5002138;28;20634;-87
2022/06/19 04:32:51;;;;;;;12.33;5.00;;;20.80;96.90;;;;;;4988630;28;20192;-87
2022/06/19 04:35:17;;;;;;;10.10;5.43;;;20.80;97.00;;;;;;5020738;27;20490;-87
2022/06/19 04:37:44;;;;;;;9.23;5.73;;;20.90;97.20;;;;;;5002284;28;20242;-86
2022/06/19 04:40:12;;;;;;;8.40;5.30;;;21.00;96.90;;;;;;5006330;28;20185;-87
2022/06/19 04:42:37;;;;;;;8.93;4.70;;;21.00;97.10;;;;;;4985221;28;20451;-86
2022/06/19 04:45:03;;;;;;;10.87;5.13;;;21.10;96.30;;;;;;5005647;28;20452;-87
2022/06/19 04:47:28;;;;;;;12.13;5.67;;;21.20;96.20;;;;;;5000598;28;20201;-87
2022/06/19 04:49:54;;;;;;;9.83;4.53;;;21.20;96.20;;;;;;5014642;28;21198;-87
2022/06/19 04:52:19;;;;;;;9.67;5.37;;;21.20;96.50;;;;;;4990578;28;20584;-87
2022/06/19 04:54:46;;;;;;;9.90;4.83;;;21.30;95.80;;;;;;5002960;28;20182;-87
2022/06/19 04:57:12;;;;;;;7.87;5.70;;;21.40;95.50;;;;;;4996356;28;20199;-87
2022/06/19 04:59:37;;;;;;;8.90;4.70;;;21.50;95.50;;;;;;4992921;28;20432;-87
2022/06/19 05:02:03;;;;;;;8.37;4.63;;;21.60;95.60;;;;;;4995750;28;20543;-87
2022/06/19 05:04:29;;;;;;;8.60;4.33;;;21.70;96.00;;;;;;4993857;28;20181;-87
2022/06/19 05:06:54;;;;;;;10.93;5.40;;;21.80;95.60;;;;;;4977743;28;20196;-87
2022/06/19 05:09:20;;;;;;;8.50;5.00;;;21.90;95.40;;;;;;5012811;28;20583;-87
2022/06/19 05:11:45;;;;;;;9.40;4.73;;;21.90;95.20;;;;;;4992507;28;20697;-87
2022/06/19 05:14:11;;;;;;;7.90;4.50;;;22.00;94.80;;;;;;4998552;28;20184;-87
2022/06/19 05:16:36;;;;;;;13.43;4.87;;;22.10;94.20;;;;;;5006593;28;20780;-87
2022/06/19 05:19:04;;;;;;;7.70;4.33;;;22.20;94.00;;;;;;4985302;28;20566;-86
2022/06/19 05:21:37;;;;;;;7.63;4.57;;;22.20;94.10;;;;;;4998673;28;20276;-87
2022/06/19 05:24:04;;;;;;;11.37;5.33;;;22.30;93.40;;;;;;4993402;28;20881;-87
2022/06/19 05:26:32;;;;;;;8.50;4.77;;;22.40;93.60;;;;;;5058712;28;20189;-87
2022/06/19 05:28:59;;;;;;;7.07;4.70;;;22.50;93.10;;;;;;5005153;28;20515;-86
2022/06/19 05:31:26;;;;;;;11.90;5.47;;;22.60;92.80;;;;;;4987891;28;20875;-86
2022/06/19 05:33:51;;;;;;;11.73;4.77;;;22.50;92.80;;;;;;4992268;28;20498;-85
2022/06/19 05:36:18;;;;;;;9.40;4.70;;;22.50;92.80;;;;;;4971766;28;20452;-86
2022/06/19 05:38:43;;;;;;;8.73;5.23;;;22.50;92.90;;;;;;4992304;28;20186;-86
2022/06/19 05:41:09;;;;;;;9.30;4.53;;;22.60;92.70;;;;;;5006982;27;20520;-86
2022/06/19 05:43:35;;;;;;;10.60;4.80;;;22.70;93.40;;;;;;4999732;28;20185;-86
2022/06/19 05:46:07;;;;;;;8.47;4.60;;;22.80;93.70;;;;;;5014147;28;20184;-86
2022/06/19 05:48:36;;;;;;;12.33;5.10;;;22.90;92.80;;;;;;5007522;28;20444;-86
2022/06/19 05:51:08;;;;;;;8.10;5.30;;;23.00;92.30;;;;;;5015645;27;20464;-86
2022/06/19 05:53:37;;;;;;;11.03;5.07;;;23.10;92.50;;;;;;4992293;28;20767;-87
2022/06/19 05:56:03;;;;;;;12.90;5.67;;;23.20;92.60;;;;;;4992237;28;20432;-86
2022/06/19 05:58:29;;;;;;;11.93;5.77;;;23.20;92.60;;;;;;4994579;28;20547;-86
2022/06/19 06:00:55;;;;;;;8.30;4.50;;;23.10;92.80;;;;;;4992203;28;20436;-87
2022/06/19 06:03:22;;;;;;;8.20;5.27;;;23.20;92.70;;;;;;4994667;28;20517;-87
2022/06/19 06:05:48;;;;;;;11.17;5.30;;;23.30;93.10;;;;;;5000909;28;20185;-87
2022/06/19 06:08:14;;;;;;;8.37;5.10;;;23.30;91.80;;;;;;5002441;28;20799;-86
2022/06/19 06:10:40;;;;;;;8.37;5.13;;;23.20;92.20;;;;;;4988453;28;20446;-86
2022/06/19 06:13:07;;;;;;;18.07;5.60;;;23.30;92.50;;;;;;5003459;28;20550;-87
2022/06/19 06:15:32;;;;;;;7.63;5.03;;;23.40;92.60;;;;;;4990621;28;20439;-86
2022/06/19 06:17:59;;;;;;;9.90;5.50;;;23.40;92.20;;;;;;4997351;28;20661;-86
2022/06/19 06:20:26;;;;;;;12.60;5.43;;;23.40;91.50;;;;;;4978870;28;20211;-86
2022/06/19 06:22:52;;;;;;;11.50;5.50;;;23.40;92.20;;;;;;4999993;28;20526;-87
2022/06/19 06:25:17;;;;;;;11.13;4.80;;;23.40;92.50;;;;;;4994509;28;21485;-87
2022/06/19 06:27:43;;;;;;;7.73;4.93;;;23.50;92.60;;;;;;4992371;28;20186;-87
2022/06/19 06:30:12;;;;;;;8.67;5.53;;;23.60;92.60;;;;;;4999273;28;20181;-87
2022/06/19 06:32:41;;;;;;;16.07;5.40;;;23.70;92.70;;;;;;4988720;28;20208;-87
2022/06/19 06:35:08;;;;;;;17.00;5.50;;;23.90;92.30;;;;;;5057088;28;20435;-87
2022/06/19 06:37:34;;;;;;;13.97;5.23;;;24.10;91.80;;;;;;5009175;28;20493;-88
2022/06/19 06:40:00;;;;;;;11.57;5.60;;;24.30;91.20;;;;;;4995408;28;20448;-87
2022/06/19 06:42:25;;;;;;;10.47;5.10;;;24.40;91.00;;;;;;5001263;28;20181;-87
2022/06/19 06:44:51;;;;;;;12.70;5.27;;;24.60;91.10;;;;;;4983945;28;20191;-87
2022/06/19 06:47:16;;;;;;;12.50;5.87;;;24.70;90.70;;;;;;4995956;28;20254;-88
2022/06/19 06:49:42;;;;;;;14.70;5.67;;;25.00;90.40;;;;;;4977385;28;20231;-88
2022/06/19 06:52:11;;;;;;;14.53;5.10;;;25.20;90.10;;;;;;4988191;28;20209;-88
2022/06/19 06:54:40;;;;;;;8.63;4.73;;;25.50;88.60;;;;;;4979024;28;20205;-87
2022/06/19 06:57:07;;;;;;;12.37;5.80;;;25.70;87.80;;;;;;4989269;28;20949;-87
2022/06/19 06:59:33;;;;;;;11.93;5.63;;;26.00;87.80;;;;;;4991474;28;20432;-89
2022/06/19 07:01:59;;;;;;;10.90;6.00;;;26.20;88.20;;;;;;5006083;28;20443;-86
2022/06/19 07:04:25;;;;;;;9.70;5.50;;;26.30;87.90;;;;;;4994137;28;20439;-88
2022/06/19 07:06:50;;;;;;;11.03;5.47;;;26.00;88.70;;;;;;5017112;28;20455;-88
2022/06/19 07:09:16;;;;;;;9.17;5.30;;;25.80;89.40;;;;;;5004607;28;20192;-88
2022/06/19 07:11:46;;;;;;;8.77;6.23;;;25.50;88.50;;;;;;4980252;28;20223;-87
2022/06/19 07:14:13;;;;;;;8.43;5.20;;;25.40;89.60;;;;;;4993720;28;20192;-86
2022/06/19 07:16:40;;;;;;;9.20;4.97;;;25.30;90.80;;;;;;4998745;28;20454;-87
2022/06/19 07:19:06;;;;;;;7.87;5.17;;;25.40;91.20;;;;;;4988854;28;20508;-87
2022/06/19 07:21:32;;;;;;;12.47;6.47;;;25.50;91.90;;;;;;4983678;28;20443;-88
2022/06/19 07:23:57;;;;;;;11.63;6.27;;;25.60;91.70;;;;;;5000882;28;20929;-87
2022/06/19 07:26:25;;;;;;;10.57;5.23;;;25.70;90.70;;;;;;4987438;28;20241;-87
2022/06/19 07:28:50;;;;;;;9.90;5.23;;;25.80;90.70;;;;;;4988929;28;20181;-87
2022/06/19 07:31:16;;;;;;;12.47;5.57;;;25.90;91.00;;;;;;4995443;28;20528;-87
2022/06/19 07:33:42;;;;;;;13.10;5.30;;;26.00;91.20;;;;;;4996180;28;20176;-88
2022/06/19 07:36:13;;;;;;;11.63;5.70;;;26.20;90.80;;;;;;5002612;28;20809;-88
2022/06/19 07:38:40;;;;;;;9.40;6.30;;;26.30;90.40;;;;;;4996003;28;20812;-88
2022/06/19 07:41:06;;;;;;;8.80;6.00;;;26.50;88.80;;;;;;4989070;28;21465;-87
2022/06/19 07:43:31;;;;;;;12.27;5.60;;;26.60;88.30;;;;;;4977916;28;20497;-87
2022/06/19 07:45:57;;;;;;;10.20;5.60;;;26.70;88.90;;;;;;4990993;28;20204;-88
2022/06/19 07:51:06;;;;;;;10.73;5.90;;;26.90;87.90;;;;;;4993398;28;20619;-87
2022/06/19 07:53:32;;;;;;;12.93;5.93;;;27.00;88.20;;;;;;4985550;28;20440;-87
2022/06/19 07:55:58;;;;;;;12.73;5.87;;;27.00;88.50;;;;;;5002304;28;20272;-85
2022/06/19 07:58:24;;;;;;;7.83;6.00;;;26.80;89.60;;;;;;4989780;28;20188;-88
2022/06/19 08:00:49;;;;;;;9.30;6.00;;;26.70;90.30;;;;;;4991915;28;21269;-85
2022/06/19 08:03:16;;;;;;;10.17;6.40;;;26.70;90.80;;;;;;4983311;28;20614;-86
2022/06/19 08:05:43;;;;;;;13.30;7.50;;;26.70;90.20;;;;;;4996600;28;20188;-87
2022/06/19 08:08:16;;;;;;;8.40;6.27;;;26.70;89.00;;;;;;4972785;28;21024;-85
2022/06/19 08:10:44;;;;;;;12.80;6.30;;;26.70;89.40;;;;;;4987551;28;20956;-86
2022/06/19 08:13:09;;;;;;;14.87;7.97;;;26.60;90.00;;;;;;4986550;28;21370;-87
2022/06/19 08:15:35;;;;;;;10.50;6.40;;;26.70;90.40;;;;;;4981260;28;20542;-87
2022/06/19 08:18:02;;;;;;;10.50;6.10;;;26.70;90.30;;;;;;4979291;28;20185;-88
2022/06/19 08:20:28;;;;;;;17.20;6.37;;;27.00;89.40;;;;;;5050901;28;20491;-86
2022/06/19 08:22:54;;;;;;;12.30;6.30;;;27.20;90.00;;;;;;4993149;28;20440;-86
2022/06/19 08:25:21;;;;;;;8.27;6.00;;;27.50;89.10;;;;;;5002187;28;20458;-87
2022/06/19 08:27:49;;;;;;;12.73;6.83;;;27.60;89.20;;;;;;5020726;28;20180;-85
2022/06/19 08:30:21;;;;;;;11.47;6.60;;;27.80;88.90;;;;;;4990828;28;20428;-86
2022/06/19 08:32:47;;;;;;;12.80;6.97;;;28.00;89.40;;;;;;5024153;28;20479;-92
2022/06/19 08:35:13;;;;;;;14.70;7.00;;;28.30;89.20;;;;;;5008355;28;21022;-86
2022/06/19 08:37:43;;;;;;;10.50;6.93;;;28.50;88.40;;;;;;4991729;28;20440;-86
2022/06/19 08:40:22;;;;;;;13.50;7.83;;;28.60;88.80;;;;;;4992367;28;20184;-86
2022/06/19 08:43:18;;;;;;;11.73;7.70;;;28.80;88.30;;;;;;5004903;28;20440;-86
2022/06/19 08:45:58;;;;;;;13.03;8.00;;;29.00;87.30;;;;;;5004279;28;20502;-86
2022/06/19 08:48:42;;;;;;;16.40;8.10;;;29.10;87.70;;;;;;4996615;28;20462;-86
2022/06/19 08:51:39;;;;;;;11.50;8.20;;;29.30;87.70;;;;;;4987150;28;20614;-84
2022/06/19 08:54:35;;;;;;;10.80;9.03;;;29.30;86.10;;;;;;4996235;28;20496;-85
2022/06/19 08:57:28;;;;;;;10.93;8.47;;;29.50;83.70;;;;;;4988587;28;20468;-86
2022/06/19 09:00:16;;;;;;;12.77;9.13;;;29.80;85.60;;;;;;5000822;28;20481;-84
2022/06/19 09:03:06;;;;;;;12.10;10.10;;;30.20;83.60;;;;;;5003955;28;20538;-83
2022/06/19 09:05:55;;;;;;;13.10;10.47;;;30.30;81.80;;;;;;5005459;28;20996;-85
2022/06/19 09:09:01;;;;;;;12.00;10.67;;;30.50;78.80;;;;;;4998426;28;20493;-86
2022/06/19 09:12:08;;;;;;;13.80;11.43;;;30.60;78.80;;;;;;5000379;28;20476;-84
2022/06/19 09:14:54;;;;;;;14.37;11.57;;;30.70;77.50;;;;;;4985965;28;21300;-86
2022/06/19 09:17:33;;;;;;;13.10;11.63;;;30.80;76.80;;;;;;4988641;28;21035;-85
2022/06/19 09:20:09;;;;;;;13.20;12.00;;;31.00;76.30;;;;;;4993379;28;20499;-86
2022/06/19 09:22:57;;;;;;;11.73;10.63;;;31.10;75.00;;;;;;4996359;28;20450;-85
2022/06/19 09:25:44;;;;;;;17.37;11.87;;;31.10;74.10;;;;;;4990654;28;20440;-83
2022/06/19 09:28:26;;;;;;;12.90;11.77;;;31.30;74.00;;;;;;5004513;28;20784;-86
2022/06/19 09:31:23;;;;;;;14.13;12.73;;;31.40;73.90;;;;;;4990461;28;20443;-84
2022/06/19 09:34:08;;;;;;;16.80;11.90;;;31.40;73.60;;;;;;4997703;28;20452;-84
2022/06/19 09:37:10;;;;;;;13.37;12.13;;;31.60;74.30;;;;;;4988328;28;20960;-83
2022/06/19 09:39:46;;;;;;;14.17;12.80;;;31.70;71.90;;;;;;4979753;28;20539;-84
2022/06/19 09:42:32;;;;;;;14.77;13.37;;;31.80;70.80;;;;;;5005398;28;20538;-85
2022/06/19 09:45:07;;;;;;;15.13;13.67;;;32.00;69.00;;;;;;4999826;28;20467;-84
2022/06/19 09:47:39;;;;;;;14.70;13.30;;;32.20;67.50;;;;;;4981980;28;20443;-84
2022/06/19 09:50:28;;;;;;;15.20;13.70;;;32.30;68.40;;;;;;4985218;28;20903;-83
2022/06/19 09:53:06;;;;;;;16.57;13.10;;;32.10;63.00;;;;;;5047935;28;20520;-84
2022/06/19 09:55:41;;;;;;;14.40;12.90;;;32.10;67.10;;;;;;4968425;28;20432;-84
2022/06/19 09:58:15;;;;;;;16.10;14.53;;;32.40;66.50;;;;;;4992145;28;20773;-84
2022/06/19 10:00:44;;;;;;;15.67;14.00;;;32.50;60.30;;;;;;4980172;28;20467;-85
2022/06/19 10:03:19;;;;;;;16.17;14.77;;;32.50;61.10;;;;;;4981776;28;20660;-83
2022/06/19 10:05:56;;;;;;;15.83;14.10;;;32.60;59.50;;;;;;5004387;28;20455;-83
2022/06/19 10:08:29;;;;;;;15.67;13.80;;;32.60;59.10;;;;;;4987598;28;21108;-84
2022/06/19 10:11:12;;;;;;;15.63;14.07;;;32.70;58.10;;;;;;4989431;28;20443;-84
2022/06/19 10:13:55;;;;;;;15.27;13.87;;;32.40;58.20;;;;;;4984064;28;20472;-83
2022/06/19 10:16:56;;;;;;;15.20;13.93;;;32.40;58.00;;;;;;4982218;28;20439;-85
2022/06/19 10:19:31;;;;;;;15.00;13.50;;;32.60;58.50;;;;;;4973648;28;21190;-85
2022/06/19 10:22:16;;;;;;;14.23;13.03;;;32.70;57.90;;;;;;5001563;27;20440;-86
2022/06/19 10:24:51;;;;;;;14.90;13.60;;;33.10;56.70;;;;;;4993850;28;20451;-86
2022/06/19 10:27:52;;;;;;;13.50;12.40;;;33.10;55.70;;;;;;4993901;28;20439;-85
2022/06/19 10:30:40;;;;;;;21.17;13.80;;;33.10;54.00;;;;;;4987040;28;20447;-86
2022/06/19 10:33:13;;;;;;;15.03;13.63;;;32.80;53.80;;;;;;4990463;28;20452;-84
2022/06/19 10:35:51;;;;;;;14.30;12.90;;;32.90;54.80;;;;;;5004151;27;20437;-84
2022/06/19 10:38:24;;;;;;;14.87;13.00;;;32.90;54.30;;;;;;4986512;28;20443;-84
2022/06/19 10:44:28;;;;;;;14.40;12.50;;;33.20;53.00;;;;;;4999751;28;20435;-85
2022/06/19 10:47:14;;;;;;;19.13;12.70;;;33.30;53.30;;;;;;4990147;28;20505;-84
2022/06/19 10:50:02;;;;;;;15.33;11.87;;;33.10;53.00;;;;;;5014403;27;21071;-85
2022/06/19 10:52:58;;;;;;;15.87;12.73;;;33.10;52.20;;;;;;4991996;28;21389;-84
2022/06/19 10:55:57;;;;;;;14.67;13.20;;;33.10;51.50;;;;;;4989903;28;20451;-85
2022/06/19 10:58:25;;;;;;;16.10;12.73;;;33.40;51.30;;;;;;4993017;28;20447;-85
2022/06/19 11:00:57;;;;;;;14.77;13.47;;;33.00;51.60;;;;;;4971277;28;20535;-85
2022/06/19 11:06:50;;;;;;;13.40;12.10;;;33.20;50.30;;;;;;4975378;28;20866;-85
2022/06/19 11:09:29;;;;;;;11.93;10.93;;;33.60;50.10;;;;;;4956865;28;20466;-85
2022/06/19 11:12:01;;;;;;;19.30;11.43;;;33.80;50.00;;;;;;4978969;28;20901;-86
2022/06/19 11:14:34;;;;;;;13.83;10.23;;;34.20;49.10;;;;;;4988396;28;20443;-85
2022/06/19 11:17:06;;;;;;;11.97;9.23;;;34.30;47.10;;;;;;4995293;28;20455;-86
2022/06/19 11:19:33;;;;;;;16.33;9.87;;;34.10;47.70;;;;;;4975470;28;20435;-87
2022/06/19 11:21:59;;;;;;;10.53;8.73;;;34.20;45.30;;;;;;4994463;28;20566;-85
2022/06/19 11:24:31;;;;;;;12.23;8.93;;;34.10;43.90;;;;;;4964785;28;20435;-86
2022/06/19 11:26:59;;;;;;;12.53;9.67;;;34.20;44.60;;;;;;4972934;28;20249;-85
2022/06/19 11:29:26;;;;;;;14.27;8.80;;;34.20;45.30;;;;;;4983534;28;20447;-86
2022/06/19 11:32:13;;;;;;;18.87;9.80;;;34.50;45.00;;;;;;4989493;28;20475;-86
2022/06/19 11:34:55;;;;;;;11.90;7.87;;;34.80;44.90;;;;;;4998759;28;20443;-86
2022/06/19 11:37:44;;;;;;;14.30;8.50;;;34.50;43.40;;;;;;4979790;28;20447;-87
2022/06/19 11:40:19;;;;;;;14.50;8.07;;;34.30;44.10;;;;;;4983296;28;20495;-86
2022/06/19 11:43:26;;;;;;;14.23;8.50;;;34.60;44.00;;;;;;4979145;28;20446;-91
2022/06/19 11:46:05;;;;;;;12.87;9.80;;;34.50;44.20;;;;;;4998208;28;20451;-90
2022/06/19 11:48:31;;;;;;;9.13;8.23;;;34.70;44.70;;;;;;4975552;28;20455;-87
2022/06/19 11:50:57;;;;;;;13.77;7.90;;;34.90;44.10;;;;;;5012718;28;20902;-89
2022/06/19 11:53:32;;;;;;;13.53;8.70;;;34.20;42.60;;;;;;4968952;28;20748;-88
2022/06/19 11:56:21;;;;;;;14.87;8.70;;;34.20;44.20;;;;;;4982528;28;20213;-88
2022/06/19 11:59:32;;;;;;;16.83;9.30;;;34.40;45.00;;;;;;5001460;28;20443;-88
2022/06/19 12:01:57;;;;;;;12.13;8.47;;;34.60;43.30;;;;;;5003649;28;20956;-86
2022/06/19 12:05:06;;;;;;;10.97;7.60;;;34.70;43.20;;;;;;4998450;28;21558;-93
2022/06/19 12:07:36;;;;;;;13.23;8.60;;;34.40;42.40;;;;;;4973706;28;21321;-87
2022/06/19 12:10:32;;;;;;;15.30;8.03;;;34.20;42.10;;;;;;4984394;28;20466;-95
2022/06/19 12:13:20;;;;;;;8.60;7.70;;;34.50;43.20;;;;;;5008923;28;20643;-96
2022/06/19 12:15:59;;;;;;;13.97;8.23;;;34.70;42.60;;;;;;4995341;28;20468;-87
2022/06/19 12:18:25;;;;;;;10.43;7.17;;;34.60;42.20;;;;;;4994646;28;20533;-88
2022/06/19 12:21:17;;;;;;;13.73;7.17;;;34.50;41.70;;;;;;5004921;27;20453;-87
2022/06/19 12:23:54;;;;;;;15.20;8.30;;;34.30;41.10;;;;;;4990545;28;20443;-87
2022/06/19 12:26:27;;;;;;;10.93;8.07;;;34.70;42.90;;;;;;4992712;28;20783;-86
2022/06/19 12:29:12;;;;;;;9.83;7.00;;;35.10;41.70;;;;;;4989953;28;20500;-95
2022/06/19 12:31:39;;;;;;;14.50;7.67;;;35.20;39.80;;;;;;5001905;28;20505;-92
2022/06/19 12:34:16;;;;;;;10.50;6.93;;;35.00;42.10;;;;;;5007332;28;20450;-92
2022/06/19 12:36:43;;;;;;;14.40;12.00;;;35.00;40.20;;;;;;5023182;27;20435;-89
2022/06/19 12:39:17;;;;;;;17.87;9.97;;;34.90;40.20;;;;;;4976574;28;20475;-89
2022/06/19 12:42:19;;;;;;;12.37;7.53;;;35.20;40.50;;;;;;4996684;28;21198;-87
2022/06/19 12:45:13;;;;;;;11.73;9.20;;;35.60;39.60;;;;;;4998603;28;20471;-86
2022/06/19 12:47:48;;;;;;;13.30;8.73;;;35.20;39.60;;;;;;4992570;28;21467;-87
2022/06/19 12:50:54;;;;;;;9.60;8.63;;;35.00;39.40;;;;;;4980933;28;20446;-86
2022/06/19 12:53:20;;;;;;;12.77;7.60;;;34.90;40.90;;;;;;4985322;28;20967;-91
2022/06/19 12:56:12;;;;;;;8.50;7.50;;;35.20;40.70;;;;;;4985310;28;20449;-87
2022/06/19 12:59:00;;;;;;;10.27;7.73;;;35.20;39.90;;;;;;4969239;28;20463;-89
2022/06/19 13:01:47;;;;;;;9.93;7.40;;;35.50;40.30;;;;;;4977425;28;20451;-89
2022/06/19 13:04:48;;;;;;;9.50;7.57;;;35.30;39.70;;;;;;5008358;28;20503;-87
2022/06/19 13:07:21;;;;;;;11.53;7.47;;;35.50;39.20;;;;;;4980612;28;20431;-89
2022/06/19 13:10:01;;;;;;;10.10;7.60;;;36.10;38.50;;;;;;4997084;28;20187;-89
2022/06/19 13:12:45;;;;;;;9.90;7.10;;;36.30;39.30;;;;;;4986632;28;20220;-92
2022/06/19 13:15:23;;;;;;;15.60;7.30;;;36.40;37.60;;;;;;4979442;28;20184;-92
2022/06/19 13:26:06;;;;;;;13.40;6.77;;;36.10;37.90;;;;;;5418035;22;20308;-88